createdAt,value
2022-09-29T00:00:21.312Z,5.72
2022-09-29T00:00:40.834Z,5.72
2022-09-29T00:01:10.794Z,5.72
2022-09-29T00:01:41.821Z,5.72
2022-09-29T00:02:12.959Z,5.72
2022-09-29T00:02:43.859Z,5.72
2022-09-29T00:03:14.881Z,5.72
2022-09-29T00:03:45.787Z,5.72
2022-09-29T00:04:16.783Z,5.72
2022-09-29T00:04:47.786Z,5.72
2022-09-29T00:05:18.898Z,5.72
2022-09-29T00:05:50.755Z,5.61
2022-09-29T00:06:20.825Z,5.72
2022-09-29T00:06:51.890Z,5.61
2022-09-29T00:07:22.774Z,5.61
2022-09-29T00:07:53.803Z,5.61
2022-09-29T00:08:24.787Z,5.61
2022-09-29T00:08:55.783Z,5.61
2022-09-29T00:09:26.795Z,5.61
2022-09-29T00:09:57.817Z,5.72
2022-09-29T00:10:28.790Z,5.72
2022-09-29T00:11:00.973Z,5.72
2022-09-29T00:11:30.791Z,5.72
2022-09-29T00:12:01.934Z,5.72
2022-09-29T00:12:32.827Z,5.72
2022-09-29T00:13:03.819Z,5.72
2022-09-29T00:13:34.807Z,5.72
2022-09-29T00:14:05.830Z,5.72
2022-09-29T00:14:36.761Z,5.72
2022-09-29T00:15:20.086Z,5.72
2022-09-29T00:15:38.802Z,5.72
2022-09-29T00:16:10.860Z,5.72
2022-09-29T00:16:40.902Z,5.72
2022-09-29T00:17:11.777Z,5.72
2022-09-29T00:18:02.696Z,5.72
2022-09-29T00:18:44.831Z,5.72
2022-09-29T00:19:15.800Z,5.72
2022-09-29T00:19:46.752Z,5.72
2022-09-29T00:20:17.770Z,5.72
2022-09-29T00:20:48.797Z,5.72
2022-09-29T00:21:20.812Z,5.72
2022-09-29T00:21:50.780Z,5.72
2022-09-29T00:22:21.763Z,5.72
2022-09-29T00:22:52.758Z,5.72
2022-09-29T00:23:24.009Z,5.72
2022-09-29T00:23:54.757Z,5.72
2022-09-29T00:24:25.795Z,5.72
2022-09-29T00:24:56.773Z,5.72
2022-09-29T00:25:27.823Z,5.72
2022-09-29T00:25:58.789Z,5.72
2022-09-29T00:26:30.760Z,5.72
2022-09-29T00:27:00.953Z,5.72
2022-09-29T00:27:31.795Z,5.72
2022-09-29T00:28:02.844Z,5.72
2022-09-29T00:28:33.828Z,5.72
2022-09-29T00:29:04.767Z,5.72
2022-09-29T00:29:35.796Z,5.72
2022-09-29T00:30:19.206Z,5.72
2022-09-29T00:30:37.769Z,5.72
2022-09-29T00:31:08.926Z,5.72
2022-09-29T00:31:40.804Z,5.72
2022-09-29T00:32:10.767Z,5.72
2022-09-29T00:32:41.768Z,5.72
2022-09-29T00:33:12.821Z,5.72
2022-09-29T00:33:43.759Z,5.72
2022-09-29T00:34:14.815Z,5.72
2022-09-29T00:34:45.774Z,5.72
2022-09-29T00:35:16.803Z,5.72
2022-09-29T00:35:47.781Z,5.72
2022-09-29T00:36:18.848Z,5.72
2022-09-29T00:36:51.024Z,5.72
2022-09-29T00:37:20.741Z,5.72
2022-09-29T00:37:51.768Z,5.72
2022-09-29T00:38:22.834Z,5.72
2022-09-29T00:38:53.797Z,5.72
2022-09-29T00:39:24.809Z,5.72
2022-09-29T00:39:55.813Z,5.72
2022-09-29T00:40:26.891Z,5.72
2022-09-29T00:40:57.832Z,5.72
2022-09-29T00:41:28.756Z,5.72
2022-09-29T00:42:00.900Z,5.72
2022-09-29T00:42:30.855Z,5.72
2022-09-29T00:43:01.882Z,5.72
2022-09-29T00:43:32.757Z,5.72
2022-09-29T00:44:03.855Z,5.72
2022-09-29T00:44:34.787Z,5.72
2022-09-29T00:45:18.138Z,5.72
2022-09-29T00:45:36.806Z,5.72
2022-09-29T00:46:07.937Z,5.72
2022-09-29T00:46:38.803Z,5.72
2022-09-29T00:47:10.789Z,5.72
2022-09-29T00:47:40.785Z,5.72
2022-09-29T00:48:11.832Z,5.72
2022-09-29T00:48:42.750Z,5.72
2022-09-29T00:49:13.818Z,5.72
2022-09-29T00:49:44.883Z,5.72
2022-09-29T00:50:15.850Z,5.72
2022-09-29T00:50:46.763Z,5.72
2022-09-29T00:51:17.786Z,5.72
2022-09-29T00:51:48.855Z,5.72
2022-09-29T00:52:20.744Z,5.72
2022-09-29T00:52:50.750Z,5.72
2022-09-29T00:53:21.990Z,5.72
2022-09-29T00:53:52.772Z,5.72
2022-09-29T00:54:23.813Z,5.72
2022-09-29T00:54:54.783Z,5.72
2022-09-29T00:55:25.824Z,5.72
2022-09-29T00:55:56.795Z,5.72
2022-09-29T00:56:27.774Z,5.72
2022-09-29T00:56:58.765Z,5.72
2022-09-29T00:57:30.731Z,5.72
2022-09-29T00:58:00.932Z,5.72
2022-09-29T00:58:31.765Z,5.72
2022-09-29T00:59:02.819Z,5.72
2022-09-29T00:59:33.834Z,5.72
2022-09-29T01:00:32.825Z,5.72
2022-09-29T01:00:36.445Z,5.72
2022-09-29T01:01:07.219Z,5.72
2022-09-29T01:01:37.856Z,5.72
2022-09-29T01:02:09.040Z,5.72
2022-09-29T01:02:40.769Z,5.72
2022-09-29T01:03:11.592Z,5.72
2022-09-29T01:03:41.825Z,5.72
2022-09-29T01:04:12.842Z,5.72
2022-09-29T01:04:43.744Z,5.72
2022-09-29T01:05:14.842Z,5.72
2022-09-29T01:05:45.911Z,5.72
2022-09-29T01:06:16.853Z,5.72
2022-09-29T01:06:47.885Z,5.72
2022-09-29T01:07:18.838Z,5.72
2022-09-29T01:07:50.798Z,5.72
2022-09-29T01:08:21.213Z,5.72
2022-09-29T01:08:51.813Z,5.72
2022-09-29T01:09:22.956Z,5.72
2022-09-29T01:09:53.914Z,5.72
2022-09-29T01:10:24.953Z,5.72
2022-09-29T01:10:55.770Z,5.72
2022-09-29T01:11:26.779Z,5.72
2022-09-29T01:11:57.776Z,5.72
2022-09-29T01:12:28.783Z,5.72
2022-09-29T01:13:00.975Z,5.72
2022-09-29T01:13:30.785Z,5.61
2022-09-29T01:14:01.895Z,5.61
2022-09-29T01:14:32.757Z,5.61
2022-09-29T01:15:16.235Z,5.61
2022-09-29T01:15:34.839Z,5.61
2022-09-29T01:16:10.854Z,5.61
2022-09-29T01:16:36.814Z,5.61
2022-09-29T01:17:07.877Z,5.61
2022-09-29T01:17:38.852Z,5.61
2022-09-29T01:18:10.795Z,5.61
2022-09-29T01:18:40.795Z,5.61
2022-09-29T01:19:11.763Z,5.61
2022-09-29T01:19:42.781Z,5.61
2022-09-29T01:20:13.793Z,5.61
2022-09-29T01:20:44.746Z,5.61
2022-09-29T01:21:15.807Z,5.61
2022-09-29T01:21:46.841Z,5.61
2022-09-29T01:22:17.743Z,5.61
2022-09-29T01:22:48.794Z,5.61
2022-09-29T01:23:20.768Z,5.61
2022-09-29T01:23:50.811Z,5.61
2022-09-29T01:24:21.791Z,5.61
2022-09-29T01:24:52.768Z,5.61
2022-09-29T01:25:23.776Z,5.61
2022-09-29T01:25:54.761Z,5.50
2022-09-29T01:26:25.789Z,5.50
2022-09-29T01:26:56.839Z,5.50
2022-09-29T01:27:27.740Z,5.50
2022-09-29T01:27:58.744Z,5.50
2022-09-29T01:28:30.769Z,5.50
2022-09-29T01:29:00.921Z,5.50
2022-09-29T01:29:31.842Z,5.50
2022-09-29T01:30:15.195Z,5.50
2022-09-29T01:30:33.831Z,5.50
2022-09-29T01:31:04.894Z,5.50
2022-09-29T01:31:35.921Z,5.50
2022-09-29T01:32:06.757Z,5.50
2022-09-29T01:32:37.942Z,5.50
2022-09-29T01:33:08.807Z,5.50
2022-09-29T01:33:40.788Z,5.50
2022-09-29T01:34:10.808Z,5.38
2022-09-29T01:34:41.784Z,5.38
2022-09-29T01:35:12.770Z,5.38
2022-09-29T01:35:43.777Z,5.38
2022-09-29T01:36:14.813Z,5.38
2022-09-29T01:36:45.788Z,5.38
2022-09-29T01:37:16.792Z,5.38
2022-09-29T01:37:47.749Z,5.38
2022-09-29T01:38:18.866Z,5.38
2022-09-29T01:38:50.759Z,5.38
2022-09-29T01:39:20.750Z,5.38
2022-09-29T01:39:51.770Z,5.27
2022-09-29T01:40:22.795Z,5.27
2022-09-29T01:40:53.880Z,5.27
2022-09-29T01:41:24.746Z,5.27
2022-09-29T01:41:55.787Z,5.27
2022-09-29T01:42:26.770Z,5.27
2022-09-29T01:42:57.731Z,5.27
2022-09-29T01:43:28.819Z,5.27
2022-09-29T01:44:00.934Z,5.27
2022-09-29T01:44:30.727Z,5.27
2022-09-29T01:45:14.206Z,5.27
2022-09-29T01:45:32.832Z,5.27
2022-09-29T01:46:03.922Z,5.27
2022-09-29T01:46:34.742Z,5.27
2022-09-29T01:47:05.823Z,5.22
2022-09-29T01:47:36.762Z,5.22
2022-09-29T01:48:07.776Z,5.22
2022-09-29T01:48:38.758Z,5.22
2022-09-29T01:49:10.754Z,5.11
2022-09-29T01:49:40.740Z,5.11
2022-09-29T01:50:11.830Z,5.00
2022-09-29T01:50:43.756Z,5.00
2022-09-29T01:51:13.738Z,5.00
2022-09-29T01:51:44.806Z,5.00
2022-09-29T01:52:15.821Z,5.00
2022-09-29T01:52:46.763Z,5.00
2022-09-29T01:53:17.729Z,5.00
2022-09-29T01:53:48.816Z,4.88
2022-09-29T01:54:20.896Z,4.88
2022-09-29T01:54:50.733Z,4.88
2022-09-29T01:55:21.773Z,4.88
2022-09-29T01:55:52.760Z,4.77
2022-09-29T01:56:23.813Z,4.77
2022-09-29T01:56:54.816Z,4.77
2022-09-29T01:57:26.774Z,4.72
2022-09-29T01:57:56.767Z,4.72
2022-09-29T01:58:27.746Z,4.72
2022-09-29T01:58:58.759Z,4.72
2022-09-29T01:59:30.736Z,4.72
2022-09-29T02:00:13.369Z,4.72
2022-09-29T02:00:31.920Z,4.61
2022-09-29T02:01:02.898Z,4.61
2022-09-29T02:01:33.841Z,4.61
2022-09-29T02:02:04.843Z,4.61
2022-09-29T02:02:35.788Z,4.61
2022-09-29T02:03:06.793Z,4.61
2022-09-29T02:03:37.746Z,4.61
2022-09-29T02:04:08.762Z,4.61
2022-09-29T02:04:40.794Z,4.61
2022-09-29T02:05:10.757Z,4.61
2022-09-29T02:05:41.817Z,4.61
2022-09-29T02:06:12.755Z,4.61
2022-09-29T02:06:43.719Z,4.50
2022-09-29T02:07:14.797Z,4.50
2022-09-29T02:07:45.765Z,4.50
2022-09-29T02:08:16.753Z,4.50
2022-09-29T02:08:47.748Z,4.50
2022-09-29T02:09:18.867Z,4.50
2022-09-29T02:09:50.739Z,4.50
2022-09-29T02:10:20.772Z,4.50
2022-09-29T02:10:51.817Z,4.50
2022-09-29T02:11:22.735Z,4.38
2022-09-29T02:11:53.729Z,4.38
2022-09-29T02:12:24.778Z,4.38
2022-09-29T02:12:55.783Z,4.38
2022-09-29T02:13:26.784Z,4.27
2022-09-29T02:13:57.737Z,4.27
2022-09-29T02:14:28.794Z,4.27
2022-09-29T02:15:13.245Z,4.27
2022-09-29T02:15:30.751Z,4.27
2022-09-29T02:16:01.939Z,4.27
2022-09-29T02:16:32.889Z,4.27
2022-09-29T02:17:03.842Z,4.27
2022-09-29T02:17:34.734Z,4.27
2022-09-29T02:18:05.766Z,4.27
2022-09-29T02:18:36.782Z,4.22
2022-09-29T02:19:07.746Z,4.22
2022-09-29T02:19:38.730Z,4.22
2022-09-29T02:20:10.723Z,4.11
2022-09-29T02:20:40.819Z,4.11
2022-09-29T02:21:11.745Z,4.11
2022-09-29T02:21:42.855Z,4.11
2022-09-29T02:22:13.746Z,4.11
2022-09-29T02:22:44.752Z,4.11
2022-09-29T02:23:15.774Z,4.11
2022-09-29T02:23:46.773Z,4.00
2022-09-29T02:24:17.781Z,4.00
2022-09-29T02:24:48.788Z,4.00
2022-09-29T02:25:20.734Z,4.00
2022-09-29T02:25:50.731Z,4.00
2022-09-29T02:26:21.740Z,3.88
2022-09-29T02:26:52.749Z,3.88
2022-09-29T02:27:23.723Z,3.88
2022-09-29T02:27:54.794Z,3.88
2022-09-29T02:28:25.721Z,3.88
2022-09-29T02:28:56.775Z,3.88
2022-09-29T02:29:27.805Z,3.77
2022-09-29T02:29:58.712Z,3.77
2022-09-29T02:30:43.104Z,3.77
2022-09-29T02:31:00.753Z,3.77
2022-09-29T02:31:31.828Z,3.77
2022-09-29T02:32:02.833Z,3.88
2022-09-29T02:32:33.829Z,3.88
2022-09-29T02:33:05.761Z,4.00
2022-09-29T02:33:35.814Z,4.00
2022-09-29T02:34:06.743Z,4.00
2022-09-29T02:34:37.785Z,4.00
2022-09-29T02:35:08.781Z,4.00
2022-09-29T02:35:40.722Z,4.00
2022-09-29T02:36:10.795Z,3.88
2022-09-29T02:36:41.725Z,3.88
2022-09-29T02:37:12.740Z,3.88
2022-09-29T02:37:43.730Z,3.88
2022-09-29T02:38:14.741Z,4.00
2022-09-29T02:38:45.758Z,4.00
2022-09-29T02:39:16.764Z,4.11
2022-09-29T02:39:47.718Z,4.11
2022-09-29T02:40:18.795Z,4.11
2022-09-29T02:40:50.842Z,4.11
2022-09-29T02:41:20.735Z,4.11
2022-09-29T02:41:51.721Z,4.11
2022-09-29T02:42:22.784Z,4.11
2022-09-29T02:42:53.751Z,4.00
2022-09-29T02:43:24.772Z,4.00
2022-09-29T02:43:55.798Z,4.00
2022-09-29T02:44:26.788Z,4.00
2022-09-29T02:44:57.737Z,4.00
2022-09-29T02:45:41.083Z,4.00
2022-09-29T02:46:00.912Z,4.00
2022-09-29T02:46:30.731Z,4.00
2022-09-29T02:47:01.871Z,4.00
2022-09-29T02:47:32.802Z,3.88
2022-09-29T02:48:03.804Z,3.88
2022-09-29T02:48:34.738Z,3.88
2022-09-29T02:49:05.802Z,3.88
2022-09-29T02:49:36.753Z,3.88
2022-09-29T02:50:07.816Z,3.88
2022-09-29T02:50:38.777Z,4.00
2022-09-29T02:51:10.735Z,4.00
2022-09-29T02:51:40.734Z,4.00
2022-09-29T02:52:11.752Z,4.00
2022-09-29T02:52:42.778Z,4.00
2022-09-29T02:53:13.728Z,4.00
2022-09-29T02:53:44.717Z,4.00
2022-09-29T02:54:15.798Z,4.00
2022-09-29T02:54:46.732Z,4.00
2022-09-29T02:55:17.721Z,3.88
2022-09-29T02:55:48.883Z,3.88
2022-09-29T02:56:20.764Z,3.88
2022-09-29T02:56:50.726Z,3.88
2022-09-29T02:57:21.767Z,3.88
2022-09-29T02:57:52.775Z,3.88
2022-09-29T02:58:23.722Z,3.88
2022-09-29T02:58:54.745Z,3.88
2022-09-29T02:59:25.766Z,3.88
2022-09-29T02:59:56.819Z,3.88
2022-09-29T03:00:40.151Z,4.00
2022-09-29T03:00:58.778Z,4.00
2022-09-29T03:01:30.748Z,4.00
2022-09-29T03:02:00.864Z,4.00
2022-09-29T03:02:31.713Z,4.00
2022-09-29T03:03:02.811Z,4.00
2022-09-29T03:03:33.872Z,4.00
2022-09-29T03:04:05.036Z,4.00
2022-09-29T03:04:35.804Z,4.00
2022-09-29T03:05:06.758Z,4.00
2022-09-29T03:05:37.717Z,4.11
2022-09-29T03:06:08.735Z,4.11
2022-09-29T03:06:40.724Z,4.11
2022-09-29T03:07:10.722Z,4.11
2022-09-29T03:07:41.736Z,4.11
2022-09-29T03:08:12.785Z,4.22
2022-09-29T03:08:43.771Z,4.22
2022-09-29T03:09:14.772Z,4.22
2022-09-29T03:09:45.910Z,4.27
2022-09-29T03:10:16.759Z,4.27
2022-09-29T03:10:47.710Z,4.27
2022-09-29T03:11:18.785Z,4.27
2022-09-29T03:11:50.729Z,4.27
2022-09-29T03:12:20.728Z,4.27
2022-09-29T03:12:51.912Z,4.27
2022-09-29T03:13:22.738Z,4.27
2022-09-29T03:13:53.716Z,4.27
2022-09-29T03:14:24.723Z,4.27
2022-09-29T03:14:55.742Z,4.27
2022-09-29T03:15:39.068Z,4.27
2022-09-29T03:15:57.814Z,4.27
2022-09-29T03:16:28.865Z,4.27
2022-09-29T03:17:00.892Z,4.27
2022-09-29T03:17:30.751Z,4.27
2022-09-29T03:18:01.803Z,4.27
2022-09-29T03:18:32.725Z,4.38
2022-09-29T03:19:03.878Z,4.38
2022-09-29T03:19:34.717Z,4.38
2022-09-29T03:20:05.786Z,4.38
2022-09-29T03:20:36.734Z,4.38
2022-09-29T03:21:07.744Z,4.38
2022-09-29T03:21:38.776Z,4.38
2022-09-29T03:22:10.744Z,4.38
2022-09-29T03:22:40.726Z,4.38
2022-09-29T03:23:11.712Z,4.38
2022-09-29T03:23:42.719Z,4.38
2022-09-29T03:24:13.783Z,4.50
2022-09-29T03:24:44.735Z,4.50
2022-09-29T03:25:15.733Z,4.50
2022-09-29T03:25:46.779Z,4.61
2022-09-29T03:26:17.715Z,4.61
2022-09-29T03:26:49.004Z,4.61
2022-09-29T03:27:20.720Z,4.61
2022-09-29T03:27:50.724Z,4.61
2022-09-29T03:28:21.721Z,4.61
2022-09-29T03:28:52.719Z,4.61
2022-09-29T03:29:23.747Z,4.61
2022-09-29T03:29:54.756Z,4.50
2022-09-29T03:30:38.230Z,4.50
2022-09-29T03:30:56.766Z,4.50
2022-09-29T03:31:27.786Z,4.50
2022-09-29T03:31:58.733Z,4.50
2022-09-29T03:32:30.710Z,4.50
2022-09-29T03:33:00.881Z,4.50
2022-09-29T03:33:31.724Z,4.50
2022-09-29T03:34:02.758Z,4.50
2022-09-29T03:34:33.881Z,4.50
2022-09-29T03:35:04.955Z,4.50
2022-09-29T03:35:35.813Z,4.50
2022-09-29T03:36:06.766Z,4.50
2022-09-29T03:36:37.726Z,4.50
2022-09-29T03:37:08.775Z,4.50
2022-09-29T03:37:40.730Z,4.50
2022-09-29T03:38:10.761Z,4.50
2022-09-29T03:38:41.717Z,4.50
2022-09-29T03:39:12.804Z,4.50
2022-09-29T03:39:43.714Z,4.50
2022-09-29T03:40:14.809Z,4.50
2022-09-29T03:40:45.804Z,4.50
2022-09-29T03:41:16.741Z,4.50
2022-09-29T03:41:47.698Z,4.50
2022-09-29T03:42:18.805Z,4.50
2022-09-29T03:42:50.699Z,4.38
2022-09-29T03:43:20.807Z,4.38
2022-09-29T03:43:51.785Z,4.38
2022-09-29T03:44:22.745Z,4.38
2022-09-29T03:44:53.832Z,4.27
2022-09-29T03:45:37.082Z,4.27
2022-09-29T03:45:55.861Z,4.27
2022-09-29T03:46:26.730Z,4.27
2022-09-29T03:46:57.700Z,4.27
2022-09-29T03:47:28.723Z,4.27
2022-09-29T03:48:00.858Z,4.27
2022-09-29T03:48:30.707Z,4.22
2022-09-29T03:49:01.846Z,4.22
2022-09-29T03:49:32.916Z,4.22
2022-09-29T03:50:03.915Z,4.22
2022-09-29T03:50:34.768Z,4.22
2022-09-29T03:51:05.743Z,4.22
2022-09-29T03:51:36.784Z,4.22
2022-09-29T03:52:07.763Z,4.22
2022-09-29T03:52:38.735Z,4.22
2022-09-29T03:53:10.735Z,4.22
2022-09-29T03:53:40.746Z,4.22
2022-09-29T03:54:11.693Z,4.22
2022-09-29T03:54:42.735Z,4.22
2022-09-29T03:55:13.699Z,4.22
2022-09-29T03:55:44.789Z,4.22
2022-09-29T03:56:15.749Z,4.22
2022-09-29T03:56:46.740Z,4.22
2022-09-29T03:57:17.707Z,4.22
2022-09-29T03:57:48.828Z,4.11
2022-09-29T03:58:20.750Z,4.11
2022-09-29T03:58:50.732Z,4.11
2022-09-29T03:59:21.722Z,4.11
2022-09-29T03:59:52.747Z,4.11
2022-09-29T04:00:36.281Z,4.11
2022-09-29T04:00:54.785Z,4.11
2022-09-29T04:01:25.758Z,4.11
2022-09-29T04:01:56.848Z,4.11
2022-09-29T04:02:27.750Z,4.00
2022-09-29T04:02:58.757Z,4.00
2022-09-29T04:03:30.711Z,4.00
2022-09-29T04:04:00.951Z,4.00
2022-09-29T04:04:31.733Z,4.00
2022-09-29T04:05:02.838Z,4.00
2022-09-29T04:05:33.788Z,4.11
2022-09-29T04:06:04.711Z,4.11
2022-09-29T04:06:35.783Z,4.11
2022-09-29T04:07:06.728Z,4.11
2022-09-29T04:07:37.773Z,4.00
2022-09-29T04:08:08.737Z,4.00
2022-09-29T04:08:40.783Z,4.00
2022-09-29T04:09:10.862Z,4.11
2022-09-29T04:09:41.764Z,4.11
2022-09-29T04:10:12.721Z,4.11
2022-09-29T04:10:43.721Z,4.11
2022-09-29T04:11:14.756Z,4.11
2022-09-29T04:11:45.748Z,4.11
2022-09-29T04:12:16.757Z,4.11
2022-09-29T04:12:47.717Z,4.11
2022-09-29T04:13:20.217Z,4.11
2022-09-29T04:13:50.752Z,4.11
2022-09-29T04:14:20.737Z,4.11
2022-09-29T04:14:51.735Z,4.11
2022-09-29T04:15:35.067Z,4.00
2022-09-29T04:15:53.758Z,4.00
2022-09-29T04:16:24.760Z,4.00
2022-09-29T04:16:55.778Z,4.00
2022-09-29T04:17:26.721Z,4.00
2022-09-29T04:17:57.734Z,4.00
2022-09-29T04:18:28.736Z,4.00
2022-09-29T04:19:00.862Z,4.00
2022-09-29T04:19:30.713Z,4.00
2022-09-29T04:20:01.876Z,3.88
2022-09-29T04:20:32.741Z,3.88
2022-09-29T04:21:03.801Z,3.88
2022-09-29T04:21:34.769Z,3.88
2022-09-29T04:22:05.733Z,3.88
2022-09-29T04:22:36.717Z,3.88
2022-09-29T04:23:07.687Z,3.88
2022-09-29T04:23:38.744Z,3.88
2022-09-29T04:24:10.709Z,3.77
2022-09-29T04:24:40.697Z,3.77
2022-09-29T04:25:11.716Z,3.77
2022-09-29T04:25:42.713Z,3.77
2022-09-29T04:26:13.687Z,3.77
2022-09-29T04:26:44.753Z,3.72
2022-09-29T04:27:15.696Z,3.72
2022-09-29T04:27:46.746Z,3.72
2022-09-29T04:28:17.689Z,3.72
2022-09-29T04:28:48.827Z,3.72
2022-09-29T04:29:20.875Z,3.72
2022-09-29T04:29:50.769Z,3.72
2022-09-29T04:30:34.142Z,3.72
2022-09-29T04:30:52.706Z,3.77
2022-09-29T04:31:23.742Z,3.77
2022-09-29T04:31:54.816Z,3.77
2022-09-29T04:32:25.713Z,3.77
2022-09-29T04:32:56.716Z,3.77
2022-09-29T04:33:27.741Z,3.77
2022-09-29T04:33:58.685Z,3.77
2022-09-29T04:34:30.854Z,3.77
2022-09-29T04:35:01.043Z,3.77
2022-09-29T04:35:36.649Z,3.77
2022-09-29T04:36:02.775Z,3.77
2022-09-29T04:36:33.744Z,3.77
2022-09-29T04:37:04.738Z,3.77
2022-09-29T04:37:35.707Z,3.77
2022-09-29T04:38:06.786Z,3.77
2022-09-29T04:38:37.691Z,3.77
2022-09-29T04:39:08.770Z,3.77
2022-09-29T04:39:40.725Z,3.77
2022-09-29T04:40:10.762Z,3.77
2022-09-29T04:40:41.746Z,3.77
2022-09-29T04:41:12.715Z,3.77
2022-09-29T04:41:43.692Z,3.77
2022-09-29T04:42:14.717Z,3.77
2022-09-29T04:42:45.706Z,3.77
2022-09-29T04:43:16.734Z,3.72
2022-09-29T04:43:47.736Z,3.72
2022-09-29T04:44:18.748Z,3.72
2022-09-29T04:44:50.692Z,3.72
2022-09-29T04:45:33.050Z,3.72
2022-09-29T04:45:51.766Z,3.72
2022-09-29T04:46:22.836Z,3.72
2022-09-29T04:46:53.701Z,3.72
2022-09-29T04:47:24.712Z,3.72
2022-09-29T04:47:55.756Z,3.72
2022-09-29T04:48:26.699Z,3.72
2022-09-29T04:48:57.755Z,3.72
2022-09-29T04:49:28.705Z,3.72
2022-09-29T04:50:00.846Z,3.72
2022-09-29T04:50:30.716Z,3.61
2022-09-29T04:51:01.870Z,3.61
2022-09-29T04:51:32.694Z,3.61
2022-09-29T04:52:03.788Z,3.61
2022-09-29T04:52:34.699Z,3.50
2022-09-29T04:53:05.720Z,3.50
2022-09-29T04:53:36.697Z,3.50
2022-09-29T04:54:07.767Z,3.50
2022-09-29T04:54:38.716Z,3.50
2022-09-29T04:55:10.737Z,3.50
2022-09-29T04:55:40.728Z,3.50
2022-09-29T04:56:11.735Z,3.50
2022-09-29T04:56:42.696Z,3.50
2022-09-29T04:57:13.699Z,3.50
2022-09-29T04:57:44.758Z,3.50
2022-09-29T04:58:15.738Z,3.61
2022-09-29T04:58:46.771Z,3.61
2022-09-29T04:59:17.690Z,3.61
2022-09-29T04:59:48.805Z,3.50
2022-09-29T05:00:33.167Z,3.50
2022-09-29T05:00:50.805Z,3.50
2022-09-29T05:01:21.834Z,3.50
2022-09-29T05:01:52.745Z,3.50
2022-09-29T05:02:23.813Z,3.50
2022-09-29T05:02:54.677Z,3.50
2022-09-29T05:03:25.731Z,3.50
2022-09-29T05:03:56.682Z,3.50
2022-09-29T05:04:27.687Z,3.50
2022-09-29T05:04:58.706Z,3.50
2022-09-29T05:05:30.682Z,3.50
2022-09-29T05:06:00.894Z,3.50
2022-09-29T05:06:31.695Z,3.50
2022-09-29T05:07:02.797Z,3.61
2022-09-29T05:07:33.822Z,3.61
2022-09-29T05:08:04.751Z,3.61
2022-09-29T05:08:35.700Z,3.61
2022-09-29T05:09:06.710Z,3.61
2022-09-29T05:09:37.774Z,3.61
2022-09-29T05:10:08.845Z,3.61
2022-09-29T05:10:40.758Z,3.61
2022-09-29T05:11:10.693Z,3.61
2022-09-29T05:11:41.759Z,3.50
2022-09-29T05:12:12.753Z,3.50
2022-09-29T05:12:43.762Z,3.50
2022-09-29T05:13:14.784Z,3.50
2022-09-29T05:13:45.722Z,3.50
2022-09-29T05:14:16.915Z,3.61
2022-09-29T05:14:47.781Z,3.61
2022-09-29T05:15:31.241Z,3.61
2022-09-29T05:15:50.777Z,3.61
2022-09-29T05:16:20.856Z,3.61
2022-09-29T05:16:51.762Z,3.61
2022-09-29T05:17:22.736Z,3.61
2022-09-29T05:17:53.767Z,3.72
2022-09-29T05:18:24.774Z,3.72
2022-09-29T05:18:55.794Z,3.72
2022-09-29T05:19:26.768Z,3.72
2022-09-29T05:19:57.761Z,3.72
2022-09-29T05:20:34.318Z,3.72
2022-09-29T05:21:23.354Z,3.72
2022-09-29T05:21:30.763Z,3.72
2022-09-29T05:22:01.892Z,3.72
2022-09-29T05:22:32.718Z,3.72
2022-09-29T05:23:03.894Z,3.77
2022-09-29T05:23:34.808Z,3.77
2022-09-29T05:24:05.754Z,3.77
2022-09-29T05:24:36.795Z,3.77
2022-09-29T05:25:07.794Z,3.77
2022-09-29T05:25:38.769Z,3.77
2022-09-29T05:26:10.764Z,3.77
2022-09-29T05:26:41.797Z,3.88
2022-09-29T05:27:11.734Z,3.88
2022-09-29T05:27:42.783Z,3.88
2022-09-29T05:28:13.759Z,3.88
2022-09-29T05:28:44.765Z,3.88
2022-09-29T05:29:15.877Z,3.88
2022-09-29T05:29:46.731Z,4.00
2022-09-29T05:30:30.108Z,4.00
2022-09-29T05:30:48.735Z,4.00
2022-09-29T05:31:20.778Z,4.00
2022-09-29T05:31:50.762Z,4.00
2022-09-29T05:32:21.775Z,4.11
2022-09-29T05:32:58.211Z,4.11
2022-09-29T05:33:23.773Z,4.11
2022-09-29T05:33:54.783Z,4.11
2022-09-29T05:34:25.722Z,4.11
2022-09-29T05:34:56.790Z,4.11
2022-09-29T05:35:27.808Z,4.11
2022-09-29T05:35:58.821Z,4.22
2022-09-29T05:36:30.760Z,4.22
2022-09-29T05:37:00.876Z,4.22
2022-09-29T05:37:31.757Z,4.22
2022-09-29T05:38:02.814Z,4.22
2022-09-29T05:38:33.733Z,4.22
2022-09-29T05:39:04.784Z,4.22
2022-09-29T05:39:35.780Z,4.27
2022-09-29T05:40:06.884Z,4.27
2022-09-29T05:40:37.832Z,4.27
2022-09-29T05:41:08.749Z,4.27
2022-09-29T05:41:40.757Z,4.27
2022-09-29T05:42:10.785Z,4.27
2022-09-29T05:42:41.764Z,4.27
2022-09-29T05:43:12.749Z,4.38
2022-09-29T05:43:43.902Z,4.38
2022-09-29T05:44:14.793Z,4.38
2022-09-29T05:44:45.740Z,4.38
2022-09-29T05:45:29.162Z,4.38
2022-09-29T05:45:47.775Z,4.38
2022-09-29T05:46:18.839Z,4.38
2022-09-29T05:46:50.754Z,4.38
2022-09-29T05:47:20.739Z,4.38
2022-09-29T05:47:51.747Z,4.38
2022-09-29T05:48:22.781Z,4.38
2022-09-29T05:48:53.773Z,4.38
2022-09-29T05:49:24.781Z,4.38
2022-09-29T05:49:55.768Z,4.38
2022-09-29T05:50:26.801Z,4.38
2022-09-29T05:50:57.759Z,4.38
2022-09-29T05:51:28.765Z,4.50
2022-09-29T05:52:00.924Z,4.50
2022-09-29T05:52:30.787Z,4.50
2022-09-29T05:53:01.858Z,4.50
2022-09-29T05:53:32.781Z,4.50
2022-09-29T05:54:03.853Z,4.50
2022-09-29T05:54:34.777Z,4.50
2022-09-29T05:55:05.706Z,4.50
2022-09-29T05:55:36.767Z,4.50
2022-09-29T05:56:07.823Z,4.50
2022-09-29T05:56:41.899Z,4.50
2022-09-29T05:57:10.795Z,4.61
2022-09-29T05:57:40.755Z,4.61
2022-09-29T05:58:11.761Z,4.61
2022-09-29T05:58:42.748Z,4.61
2022-09-29T05:59:13.746Z,4.61
2022-09-29T05:59:44.805Z,4.61
2022-09-29T06:00:28.159Z,4.61
2022-09-29T06:00:46.762Z,4.61
2022-09-29T06:01:17.853Z,4.61
2022-09-29T06:01:48.830Z,4.72
2022-09-29T06:02:20.805Z,4.72
2022-09-29T06:02:50.694Z,4.72
2022-09-29T06:03:21.785Z,4.72
2022-09-29T06:03:52.757Z,4.77
2022-09-29T06:04:23.761Z,4.77
2022-09-29T06:04:54.745Z,4.77
2022-09-29T06:05:25.873Z,4.77
2022-09-29T06:05:56.742Z,4.77
2022-09-29T06:06:27.865Z,4.77
2022-09-29T06:06:58.778Z,4.88
2022-09-29T06:07:30.823Z,4.88
2022-09-29T06:08:00.822Z,4.88
2022-09-29T06:08:31.775Z,4.88
2022-09-29T06:09:02.810Z,4.88
2022-09-29T06:09:33.788Z,4.88
2022-09-29T06:10:04.994Z,4.88
2022-09-29T06:10:35.699Z,4.88
2022-09-29T06:11:06.763Z,4.88
2022-09-29T06:11:37.785Z,4.88
2022-09-29T06:12:08.769Z,4.88
2022-09-29T06:12:40.728Z,4.88
2022-09-29T06:13:10.734Z,4.88
2022-09-29T06:13:41.747Z,4.88
2022-09-29T06:14:12.790Z,4.88
2022-09-29T06:14:43.728Z,4.88
2022-09-29T06:15:27.069Z,4.88
2022-09-29T06:15:45.794Z,4.88
2022-09-29T06:16:16.745Z,5.00
2022-09-29T06:16:47.894Z,5.00
2022-09-29T06:17:18.734Z,5.00
2022-09-29T06:17:50.713Z,5.00
2022-09-29T06:18:20.748Z,5.00
2022-09-29T06:18:51.779Z,5.00
2022-09-29T06:19:22.734Z,5.00
2022-09-29T06:19:53.733Z,5.00
2022-09-29T06:20:24.815Z,5.00
2022-09-29T06:20:55.740Z,5.00
2022-09-29T06:21:26.756Z,5.00
2022-09-29T06:21:57.791Z,5.00
2022-09-29T06:22:28.751Z,5.00
2022-09-29T06:23:00.885Z,5.00
2022-09-29T06:23:30.733Z,5.00
2022-09-29T06:24:01.902Z,5.00
2022-09-29T06:24:32.780Z,5.00
2022-09-29T06:25:03.763Z,5.00
2022-09-29T06:25:34.696Z,5.00
2022-09-29T06:26:05.757Z,5.00
2022-09-29T06:26:36.732Z,5.00
2022-09-29T06:27:07.845Z,5.00
2022-09-29T06:27:38.764Z,5.00
2022-09-29T06:28:10.843Z,5.00
2022-09-29T06:28:40.781Z,5.11
2022-09-29T06:29:11.943Z,5.11
2022-09-29T06:29:42.706Z,5.11
2022-09-29T06:30:26.141Z,5.11
2022-09-29T06:30:44.746Z,5.11
2022-09-29T06:31:15.811Z,5.22
2022-09-29T06:31:46.712Z,5.22
2022-09-29T06:32:17.706Z,5.22
2022-09-29T06:32:48.769Z,5.22
2022-09-29T06:33:20.783Z,5.22
2022-09-29T06:33:50.759Z,5.22
2022-09-29T06:34:21.756Z,5.22
2022-09-29T06:34:56.760Z,5.27
2022-09-29T06:35:23.719Z,5.27
2022-09-29T06:35:54.750Z,5.27
2022-09-29T06:36:25.772Z,5.27
2022-09-29T06:36:56.764Z,5.27
2022-09-29T06:37:27.753Z,5.27
2022-09-29T06:37:58.810Z,5.27
2022-09-29T06:38:30.740Z,5.38
2022-09-29T06:39:00.874Z,5.38
2022-09-29T06:39:31.721Z,5.38
2022-09-29T06:40:03.632Z,5.38
2022-09-29T06:40:33.766Z,5.38
2022-09-29T06:41:04.815Z,5.38
2022-09-29T06:41:35.714Z,5.38
2022-09-29T06:42:06.798Z,5.38
2022-09-29T06:42:37.766Z,5.27
2022-09-29T06:43:08.745Z,5.27
2022-09-29T06:43:40.736Z,5.27
2022-09-29T06:44:10.751Z,5.27
2022-09-29T06:44:41.747Z,5.27
2022-09-29T06:45:25.092Z,5.27
2022-09-29T06:45:43.792Z,5.27
2022-09-29T06:46:14.798Z,5.27
2022-09-29T06:46:45.730Z,5.38
2022-09-29T06:47:16.755Z,5.38
2022-09-29T06:47:47.815Z,5.38
2022-09-29T06:48:18.688Z,5.27
2022-09-29T06:48:50.724Z,5.27
2022-09-29T06:49:20.922Z,5.38
2022-09-29T06:50:03.719Z,5.38
2022-09-29T06:50:23.087Z,5.38
2022-09-29T06:51:05.673Z,5.38
2022-09-29T06:51:29.837Z,5.38
2022-09-29T06:51:55.792Z,5.38
2022-09-29T06:52:29.940Z,5.38
2022-09-29T06:53:03.748Z,5.38